Overview Statistics Trail Chart Weather Telemetry Raw packets
 

This is the latest recevied weather packets stored in our database for station/object K6GMW. If no packets are shown the sender has not sent any weather packets the latest 10 day(s).

<< 39 40 41 42 43 44 45 >>
Time Temp. Humidity Pressure Rain* Wind** Luminosity Snow
1788363379 31.67° C 63% 1018 hPa 0 mm - 735 W/m² -
1788363074 31.67° C 65% 1017.9 hPa 0 mm - 787 W/m² -
1788362770 31.11° C 64% 1017.8 hPa 0 mm - 561 W/m² -
1788362465 31.67° C 63% 1017.7 hPa 0 mm - 738 W/m² -
1788362161 31.67° C 63% 1017.7 hPa 0 mm - 671 W/m² -
1788361861 31.67° C 64% 1017.5 hPa 0 mm - 653 W/m² -
1788361556 31.67° C 64% 1017.5 hPa 0 mm - 647 W/m² -
1788361252 31.67° C 64% 1017.6 hPa 0 mm - 618 W/m² -
1788360951 31.67° C 65% 1017.7 hPa 0 mm - 595 W/m² -
1788360651 31.67° C 65% 1017.6 hPa 0 mm - 578 W/m² -
1788360348 31.11° C 68% 1017.6 hPa 0 mm - 553 W/m² -
1788360049 31.67° C 66% 1017.6 hPa 0 mm - 535 W/m² -
1788359744 31.11° C 68% 1017.6 hPa 0 mm - 515 W/m² -
1788359439 30.56° C 70% 1017.7 hPa 0 mm - 500 W/m² -
1788359135 30° C 73% 1017.4 hPa 0 mm - 480 W/m² -
1788358830 29.44° C 73% 1017.6 hPa 0 mm - 458 W/m² -
1788358530 29.44° C 74% 1017.6 hPa 0 mm - 441 W/m² -
1788358226 29.44° C 75% 1017.7 hPa 0 mm - 420 W/m² -
1788357926 28.89° C 77% 1017.4 hPa 0 mm - 396 W/m² -
1788357621 28.33° C 78% 1017.1 hPa 0 mm - 375 W/m² -
1788357320 28.33° C 80% 1017.4 hPa 0 mm - 352 W/m² -
1788357015 27.78° C 82% 1017.7 hPa 0 mm - 331 W/m² -
1788356712 27.22° C 84% 1017.4 hPa 0 mm - 172 W/m² -
1788356411 26.67° C 86% 1017.4 hPa 0 mm - 76 W/m² -
1788356106 26.67° C 86% 1017.3 hPa 0 mm - 59 W/m² -

* Rain latest hour (hover to see other rain measurements)
** Current wind speed in m/s (hover to see current wind gust speed)